createdAt,value
2018-12-30T00:00:23.023Z,2.30
2018-12-30T00:02:51.440Z,2.57
2018-12-30T00:05:20.358Z,2.50
2018-12-30T00:07:49.056Z,2.90
2018-12-30T00:10:17.871Z,2.57
2018-12-30T00:12:46.291Z,3.70
2018-12-30T00:15:15.117Z,2.83
2018-12-30T00:17:43.532Z,3.67
2018-12-30T00:20:11.968Z,4.43
2018-12-30T00:22:40.380Z,3.70
2018-12-30T00:25:08.895Z,5.00
2018-12-30T00:27:37.312Z,2.27
2018-12-30T00:30:07.963Z,3.00
2018-12-30T00:32:36.386Z,2.90
2018-12-30T00:35:05.464Z,2.70
2018-12-30T00:37:33.885Z,1.70
2018-12-30T00:40:02.332Z,1.80
2018-12-30T00:42:30.753Z,8.60
2018-12-30T00:44:59.265Z,1.80
2018-12-30T00:47:27.682Z,3.37
2018-12-30T00:49:56.122Z,1.67
2018-12-30T00:52:24.539Z,3.13
2018-12-30T00:54:52.982Z,2.43
2018-12-30T00:57:21.401Z,1.33
2018-12-30T00:59:49.850Z,4.70
2018-12-30T01:02:18.275Z,5.10
2018-12-30T01:04:46.717Z,12.70
2018-12-30T01:07:15.283Z,3.90
2018-12-30T01:09:43.719Z,4.40
2018-12-30T01:12:12.622Z,10.47
2018-12-30T01:14:41.064Z,8.90
2018-12-30T01:17:09.483Z,16.97
2018-12-30T01:19:37.935Z,6.03
2018-12-30T01:22:06.352Z,11.63
2018-12-30T01:24:34.795Z,7.03
2018-12-30T01:27:03.590Z,6.57
2018-12-30T01:29:32.039Z,6.63
2018-12-30T01:32:00.448Z,8.03
2018-12-30T01:34:28.915Z,10.13
2018-12-30T01:36:57.401Z,2.63
2018-12-30T01:39:25.816Z,2.00
2018-12-30T01:41:54.258Z,5.93
2018-12-30T01:44:22.676Z,1.83
2018-12-30T01:46:51.123Z,11.97
2018-12-30T01:49:19.541Z,9.50
2018-12-30T01:51:47.995Z,11.77
2018-12-30T01:54:16.691Z,8.93
2018-12-30T01:56:45.135Z,5.47
2018-12-30T01:59:13.548Z,6.93
2018-12-30T02:01:42.003Z,11.30
2018-12-30T02:04:10.414Z,4.43
2018-12-30T02:06:38.873Z,1.77
2018-12-30T02:09:07.364Z,0.93
2018-12-30T02:11:35.800Z,4.80
2018-12-30T02:14:04.210Z,3.10
2018-12-30T02:16:32.657Z,1.60
2018-12-30T02:19:01.079Z,0.60
2018-12-30T02:21:29.518Z,6.10
2018-12-30T02:23:57.936Z,1.00
2018-12-30T02:26:26.384Z,1.03
2018-12-30T02:28:54.801Z,0.70
2018-12-30T02:31:23.241Z,0.70
2018-12-30T02:33:51.657Z,0.60
2018-12-30T02:36:20.169Z,0.60
2018-12-30T02:38:48.590Z,1.10
2018-12-30T02:41:17.029Z,0.70
2018-12-30T02:43:45.445Z,0.67
2018-12-30T02:46:14.064Z,0.50
2018-12-30T02:48:42.480Z,2.70
2018-12-30T02:51:10.932Z,0.80
2018-12-30T02:53:39.354Z,0.77
2018-12-30T02:56:07.803Z,0.80
2018-12-30T02:58:37.101Z,0.60
2018-12-30T03:01:05.542Z,3.13
2018-12-30T03:03:33.969Z,0.60
2018-12-30T03:06:02.419Z,0.70
2018-12-30T03:08:30.841Z,1.03
2018-12-30T03:10:59.567Z,0.60
2018-12-30T03:13:27.991Z,1.37
2018-12-30T03:15:56.507Z,0.50
2018-12-30T03:18:24.924Z,0.70
2018-12-30T03:20:53.344Z,0.70
2018-12-30T03:23:21.796Z,0.70
2018-12-30T03:25:50.212Z,2.30
2018-12-30T03:28:18.655Z,0.77
2018-12-30T03:30:47.075Z,0.70
2018-12-30T03:33:15.518Z,1.10
2018-12-30T03:35:43.941Z,4.30
2018-12-30T03:38:12.392Z,1.00
2018-12-30T03:40:40.811Z,0.70
2018-12-30T03:43:09.263Z,0.90
2018-12-30T03:45:37.679Z,0.80
2018-12-30T03:48:06.119Z,0.67
2018-12-30T03:50:34.537Z,2.30
2018-12-30T03:53:02.978Z,3.53
2018-12-30T03:55:31.407Z,0.60
2018-12-30T03:57:59.847Z,0.70
2018-12-30T04:00:28.265Z,0.80
2018-12-30T04:02:56.715Z,0.90
2018-12-30T04:05:25.122Z,0.77
2018-12-30T04:07:53.559Z,0.70
2018-12-30T04:10:21.995Z,0.70
2018-12-30T04:12:50.429Z,0.67
2018-12-30T04:15:18.842Z,0.80
2018-12-30T04:17:47.289Z,0.97
2018-12-30T04:20:15.710Z,0.80
2018-12-30T04:22:44.156Z,0.90
2018-12-30T04:25:12.572Z,1.00
2018-12-30T04:27:41.013Z,1.20
2018-12-30T04:30:09.440Z,1.63
2018-12-30T04:32:37.884Z,0.70
2018-12-30T04:35:06.380Z,4.30
2018-12-30T04:37:34.822Z,2.10
2018-12-30T04:40:03.792Z,1.47
2018-12-30T04:42:32.233Z,0.60
2018-12-30T04:45:00.651Z,1.00
2018-12-30T04:47:29.098Z,2.93
2018-12-30T04:49:57.519Z,1.33
2018-12-30T04:52:26.277Z,1.47
2018-12-30T04:54:54.779Z,0.90
2018-12-30T04:57:23.220Z,3.73
2018-12-30T04:59:51.649Z,2.10
2018-12-30T05:02:20.099Z,0.93
2018-12-30T05:04:48.518Z,0.70
2018-12-30T05:07:16.935Z,1.43
2018-12-30T05:09:45.374Z,1.83
2018-12-30T05:12:13.791Z,1.13
2018-12-30T05:14:42.250Z,1.07
2018-12-30T05:17:10.658Z,1.00
2018-12-30T05:19:39.106Z,0.60
2018-12-30T05:22:07.603Z,2.77
2018-12-30T05:24:36.044Z,4.10
2018-12-30T05:27:04.455Z,1.07
2018-12-30T05:29:32.902Z,1.40
2018-12-30T05:32:01.388Z,2.30
2018-12-30T05:34:29.836Z,4.57
2018-12-30T05:36:58.256Z,1.47
2018-12-30T05:39:26.700Z,0.60
2018-12-30T05:41:55.119Z,1.63
2018-12-30T05:44:23.569Z,3.73
2018-12-30T05:46:51.981Z,2.00
2018-12-30T05:49:20.427Z,5.50
2018-12-30T05:51:48.841Z,0.80
2018-12-30T05:54:17.287Z,4.00
2018-12-30T05:56:45.701Z,3.13
2018-12-30T05:59:14.166Z,3.53
2018-12-30T06:01:42.582Z,1.10
2018-12-30T06:04:11.025Z,4.63
2018-12-30T06:06:39.518Z,1.47
2018-12-30T06:09:07.967Z,2.40
2018-12-30T06:11:36.382Z,1.20
2018-12-30T06:14:04.831Z,1.73
2018-12-30T06:16:33.240Z,1.73
2018-12-30T06:19:01.688Z,0.63
2018-12-30T06:21:30.108Z,2.80
2018-12-30T06:23:58.545Z,2.10
2018-12-30T06:26:26.980Z,1.37
2018-12-30T06:28:55.428Z,4.33
2018-12-30T06:31:23.844Z,5.43
2018-12-30T06:33:52.255Z,5.17
2018-12-30T06:36:20.704Z,0.90
2018-12-30T06:38:49.118Z,2.60
2018-12-30T06:41:17.571Z,2.90
2018-12-30T06:43:46.000Z,5.90
2018-12-30T06:46:14.438Z,4.13
2018-12-30T06:48:42.940Z,4.87
2018-12-30T06:51:11.385Z,11.83
2018-12-30T06:53:39.805Z,5.90
2018-12-30T06:56:08.248Z,3.57
2018-12-30T06:58:36.672Z,7.23
2018-12-30T07:01:05.116Z,5.60
2018-12-30T07:03:33.534Z,7.87
2018-12-30T07:06:01.980Z,8.83
2018-12-30T07:08:30.400Z,2.47
2018-12-30T07:10:58.847Z,11.53
2018-12-30T07:13:27.276Z,1.80
2018-12-30T07:15:55.712Z,3.57
2018-12-30T07:18:24.130Z,4.33
2018-12-30T07:20:52.576Z,3.80
2018-12-30T07:23:20.998Z,6.10
2018-12-30T07:25:49.440Z,2.73
2018-12-30T07:28:17.856Z,3.17
2018-12-30T07:30:46.308Z,4.00
2018-12-30T07:33:14.723Z,2.03
2018-12-30T07:35:43.162Z,0.90
2018-12-30T07:38:11.578Z,8.33
2018-12-30T07:40:40.102Z,6.37
2018-12-30T07:43:08.522Z,5.23
2018-12-30T07:45:36.966Z,1.97
2018-12-30T07:48:05.383Z,4.00
2018-12-30T07:50:33.900Z,7.73
2018-12-30T07:53:02.322Z,7.67
2018-12-30T07:55:30.760Z,4.97
2018-12-30T07:57:59.175Z,4.63
2018-12-30T08:00:27.623Z,3.43
2018-12-30T08:02:56.043Z,5.57
2018-12-30T08:05:24.483Z,4.13
2018-12-30T08:07:52.901Z,4.07
2018-12-30T08:10:21.342Z,3.83
2018-12-30T08:12:49.760Z,2.63
2018-12-30T08:15:18.195Z,2.73
2018-12-30T08:17:46.606Z,4.97
2018-12-30T08:20:15.025Z,1.87
2018-12-30T08:22:43.469Z,8.93
2018-12-30T08:25:11.883Z,7.30
2018-12-30T08:27:40.327Z,3.70
2018-12-30T08:30:08.816Z,5.87
2018-12-30T08:32:37.264Z,4.73
2018-12-30T08:35:05.759Z,5.70
2018-12-30T08:37:34.203Z,4.37
2018-12-30T08:40:02.624Z,1.33
2018-12-30T08:42:31.063Z,2.43
2018-12-30T08:44:59.480Z,4.90
2018-12-30T08:47:27.916Z,2.80
2018-12-30T08:49:56.344Z,3.43
2018-12-30T08:52:24.789Z,3.70
2018-12-30T08:54:53.198Z,2.83
2018-12-30T08:57:21.645Z,2.53
2018-12-30T08:59:50.135Z,0.60
2018-12-30T09:02:18.588Z,2.93
2018-12-30T09:04:47.010Z,2.00
2018-12-30T09:07:15.455Z,3.80
2018-12-30T09:09:43.874Z,3.53
2018-12-30T09:12:12.317Z,0.57
2018-12-30T09:14:40.736Z,2.40
2018-12-30T09:17:09.186Z,1.70
2018-12-30T09:19:37.602Z,3.13
2018-12-30T09:22:06.049Z,1.17
2018-12-30T09:24:34.461Z,2.80
2018-12-30T09:27:02.905Z,2.27
2018-12-30T09:29:31.322Z,3.20
2018-12-30T09:31:59.764Z,5.90
2018-12-30T09:34:28.178Z,3.70
2018-12-30T09:36:56.626Z,0.70
2018-12-30T09:39:25.042Z,2.80
2018-12-30T09:41:53.489Z,6.90
2018-12-30T09:44:21.907Z,2.30
2018-12-30T09:46:50.426Z,2.50
2018-12-30T09:49:18.847Z,7.30
2018-12-30T09:51:47.292Z,5.60
2018-12-30T09:54:15.710Z,6.00
2018-12-30T09:56:44.200Z,5.53
2018-12-30T09:59:12.648Z,2.40
2018-12-30T10:01:41.059Z,2.80
2018-12-30T10:04:09.500Z,3.33
2018-12-30T10:06:37.925Z,4.50
2018-12-30T10:09:07.606Z,1.90
2018-12-30T10:11:37.767Z,7.60
2018-12-30T10:14:06.346Z,3.00
2018-12-30T10:16:34.773Z,5.07
2018-12-30T10:19:03.216Z,5.77
2018-12-30T10:21:31.635Z,1.63
2018-12-30T10:24:00.084Z,2.87
2018-12-30T10:26:28.494Z,2.77
2018-12-30T10:28:56.940Z,3.80
2018-12-30T10:31:25.347Z,2.57
2018-12-30T10:33:53.791Z,4.37
2018-12-30T10:36:22.206Z,7.20
2018-12-30T10:38:50.639Z,4.10
2018-12-30T10:41:19.063Z,4.30
2018-12-30T10:43:47.506Z,6.07
2018-12-30T10:46:15.929Z,3.50
2018-12-30T10:48:44.368Z,6.77
2018-12-30T10:51:12.789Z,3.07
2018-12-30T10:53:41.238Z,2.20
2018-12-30T10:56:09.652Z,3.13
2018-12-30T10:58:38.095Z,1.70
2018-12-30T11:01:06.519Z,4.67
2018-12-30T11:03:34.966Z,7.20
2018-12-30T11:06:03.380Z,5.70
2018-12-30T11:08:31.827Z,4.80
2018-12-30T11:11:00.242Z,5.23
2018-12-30T11:13:28.681Z,4.80
2018-12-30T11:15:57.098Z,1.57
2018-12-30T11:18:25.539Z,3.50
2018-12-30T11:20:53.956Z,5.47
2018-12-30T11:23:22.389Z,3.30
2018-12-30T11:25:50.874Z,2.20
2018-12-30T11:28:19.325Z,4.57
2018-12-30T11:30:47.743Z,5.03
2018-12-30T11:33:16.195Z,3.10
2018-12-30T11:35:44.610Z,4.10
2018-12-30T11:38:13.091Z,3.10
2018-12-30T11:40:41.634Z,6.73
2018-12-30T11:43:10.051Z,3.27
2018-12-30T11:45:38.488Z,4.10
2018-12-30T11:48:06.909Z,2.63
2018-12-30T11:50:35.351Z,5.60
2018-12-30T11:53:03.765Z,6.73
2018-12-30T11:55:32.208Z,7.57
2018-12-30T11:58:00.619Z,6.10
2018-12-30T12:00:29.060Z,2.80
2018-12-30T12:02:57.480Z,5.57
2018-12-30T12:05:25.923Z,5.27
2018-12-30T12:07:54.340Z,2.50
2018-12-30T12:10:22.785Z,7.93
2018-12-30T12:12:51.203Z,1.13
2018-12-30T12:15:19.646Z,3.50
2018-12-30T12:17:48.061Z,3.33
2018-12-30T12:20:16.514Z,8.00
2018-12-30T12:22:44.921Z,9.50
2018-12-30T12:25:13.366Z,10.27
2018-12-30T12:27:41.791Z,6.00
2018-12-30T12:30:10.223Z,8.60
2018-12-30T12:32:38.710Z,5.87
2018-12-30T12:35:07.158Z,4.50
2018-12-30T12:37:35.576Z,5.20
2018-12-30T12:40:04.659Z,4.80
2018-12-30T12:42:33.141Z,2.73
2018-12-30T12:45:01.589Z,3.63
2018-12-30T12:47:30.006Z,4.43
2018-12-30T12:49:58.459Z,3.83
2018-12-30T12:52:26.874Z,7.97
2018-12-30T12:54:55.323Z,7.03
2018-12-30T12:57:23.743Z,5.13
2018-12-30T12:59:52.180Z,3.77
2018-12-30T13:02:20.604Z,3.53
2018-12-30T13:04:49.054Z,6.53
2018-12-30T13:07:17.627Z,1.27
2018-12-30T13:09:46.074Z,4.17
2018-12-30T13:12:14.490Z,5.07
2018-12-30T13:14:42.910Z,2.57
2018-12-30T13:17:11.357Z,3.73
2018-12-30T13:19:39.817Z,4.47
2018-12-30T13:22:08.300Z,3.83
2018-12-30T13:24:40.052Z,4.40
2018-12-30T13:27:06.887Z,4.30
2018-12-30T13:29:35.302Z,4.07
2018-12-30T13:32:03.750Z,7.77
2018-12-30T13:34:32.162Z,6.00
2018-12-30T13:37:00.600Z,3.50
2018-12-30T13:39:29.016Z,3.30
2018-12-30T13:41:57.449Z,2.43
2018-12-30T13:44:25.869Z,5.87
2018-12-30T13:46:54.313Z,7.17
2018-12-30T13:49:22.726Z,5.17
2018-12-30T13:51:51.167Z,2.60
2018-12-30T13:54:20.514Z,9.30
2018-12-30T13:56:48.941Z,9.03
2018-12-30T13:59:17.362Z,3.30
2018-12-30T14:01:45.808Z,11.10
2018-12-30T14:04:14.228Z,9.90
2018-12-30T14:06:42.666Z,2.60
2018-12-30T14:09:11.101Z,7.17
2018-12-30T14:11:39.518Z,2.50
2018-12-30T14:14:07.936Z,5.80
2018-12-30T14:16:36.381Z,1.90
2018-12-30T14:19:04.800Z,4.20
2018-12-30T14:21:33.247Z,4.63
2018-12-30T14:24:01.677Z,11.03
2018-12-30T14:26:30.111Z,4.63
2018-12-30T14:28:58.525Z,2.40
2018-12-30T14:31:27.013Z,3.30
2018-12-30T14:33:55.429Z,9.77
2018-12-30T14:36:23.844Z,5.47
2018-12-30T14:38:52.282Z,4.10
2018-12-30T14:41:20.709Z,10.77
2018-12-30T14:43:49.152Z,2.43
2018-12-30T14:46:17.568Z,7.10
2018-12-30T14:48:46.011Z,6.93
2018-12-30T14:51:14.423Z,5.17
2018-12-30T14:53:42.861Z,5.23
2018-12-30T14:56:11.285Z,1.77
2018-12-30T14:58:39.734Z,2.20
2018-12-30T15:01:14.627Z,3.37
2018-12-30T15:03:38.312Z,5.53
2018-12-30T15:06:06.732Z,7.73
2018-12-30T15:08:35.590Z,2.40
2018-12-30T15:11:04.016Z,1.63
2018-12-30T15:13:32.517Z,5.50
2018-12-30T15:16:00.937Z,7.03
2018-12-30T15:18:29.383Z,9.13
2018-12-30T15:20:57.800Z,7.83
2018-12-30T15:23:26.279Z,4.40
2018-12-30T15:25:54.764Z,2.90
2018-12-30T15:28:23.179Z,6.13
2018-12-30T15:30:51.616Z,3.23
2018-12-30T15:33:20.035Z,5.07
2018-12-30T15:35:48.480Z,5.23
2018-12-30T15:38:16.892Z,8.50
2018-12-30T15:40:45.341Z,5.90
2018-12-30T15:43:13.755Z,2.80
2018-12-30T15:45:42.199Z,8.20
2018-12-30T15:48:10.687Z,3.93
2018-12-30T15:50:39.136Z,5.17
2018-12-30T15:53:07.552Z,6.60
2018-12-30T15:55:35.998Z,12.47
2018-12-30T15:58:04.489Z,11.40
2018-12-30T16:00:32.943Z,2.50
2018-12-30T16:03:01.359Z,7.47
2018-12-30T16:05:29.801Z,4.53
2018-12-30T16:07:58.233Z,5.63
2018-12-30T16:10:26.653Z,2.90
2018-12-30T16:12:55.069Z,6.60
2018-12-30T16:15:23.511Z,7.53
2018-12-30T16:17:51.931Z,2.80
2018-12-30T16:20:20.389Z,13.33
2018-12-30T16:22:48.885Z,3.30
2018-12-30T16:25:17.302Z,8.50
2018-12-30T16:27:45.747Z,6.13
2018-12-30T16:30:14.166Z,5.47
2018-12-30T16:32:42.610Z,9.77
2018-12-30T16:35:11.027Z,5.00
2018-12-30T16:37:39.472Z,6.30
2018-12-30T16:40:07.889Z,11.10
2018-12-30T16:42:36.336Z,3.40
2018-12-30T16:45:05.699Z,13.17
2018-12-30T16:47:41.564Z,3.80
2018-12-30T16:50:06.233Z,6.60
2018-12-30T16:52:34.674Z,13.77
2018-12-30T16:55:03.093Z,4.27
2018-12-30T16:57:31.617Z,10.57
2018-12-30T17:00:00.174Z,4.67
2018-12-30T17:02:28.625Z,8.60
2018-12-30T17:04:57.044Z,9.93
2018-12-30T17:07:25.490Z,11.37
2018-12-30T17:09:53.914Z,11.40
2018-12-30T17:12:22.357Z,5.37
2018-12-30T17:14:50.776Z,10.63
2018-12-30T17:17:19.228Z,10.57
2018-12-30T17:19:47.639Z,5.37
2018-12-30T17:22:16.098Z,12.90
2018-12-30T17:24:44.528Z,15.73
2018-12-30T17:27:12.949Z,11.03
2018-12-30T17:29:41.393Z,22.83
2018-12-30T17:32:09.810Z,15.80
2018-12-30T17:34:38.260Z,13.00
2018-12-30T17:37:06.675Z,7.03
2018-12-30T17:39:35.121Z,12.40
2018-12-30T17:42:03.543Z,12.33
2018-12-30T17:44:32.066Z,10.03
2018-12-30T17:47:00.490Z,6.90
2018-12-30T17:49:28.934Z,13.73
2018-12-30T17:51:57.444Z,7.80
2018-12-30T17:54:25.880Z,12.10
2018-12-30T17:56:54.300Z,10.17
2018-12-30T17:59:22.744Z,9.70
2018-12-30T18:01:51.250Z,15.03
2018-12-30T18:04:19.688Z,9.90
2018-12-30T18:06:48.113Z,9.50
2018-12-30T18:09:16.555Z,15.30
2018-12-30T18:11:44.968Z,9.60
2018-12-30T18:14:13.415Z,8.07
2018-12-30T18:16:41.832Z,9.60
2018-12-30T18:19:10.277Z,7.50
2018-12-30T18:21:38.698Z,21.93
2018-12-30T18:24:07.148Z,11.97
2018-12-30T18:26:37.874Z,9.57
2018-12-30T18:29:05.733Z,10.43
2018-12-30T18:31:34.177Z,9.67
2018-12-30T18:34:02.597Z,15.57
2018-12-30T18:36:31.053Z,8.90
2018-12-30T18:38:59.461Z,9.20
2018-12-30T18:41:27.919Z,28.30
2018-12-30T18:43:56.340Z,13.03
2018-12-30T18:46:24.799Z,14.00
2018-12-30T18:48:53.219Z,10.00
2018-12-30T18:51:21.667Z,12.27
2018-12-30T18:53:50.109Z,7.67
2018-12-30T18:56:18.562Z,12.53
2018-12-30T18:58:46.982Z,12.70
2018-12-30T19:01:15.442Z,8.37
2018-12-30T19:03:43.859Z,12.70
2018-12-30T19:06:12.303Z,14.90
2018-12-30T19:08:40.720Z,7.30
2018-12-30T19:11:09.167Z,9.93
2018-12-30T19:13:37.579Z,7.53
2018-12-30T19:16:06.047Z,13.53
2018-12-30T19:18:34.463Z,8.23
2018-12-30T19:21:02.912Z,18.20
2018-12-30T19:23:31.339Z,14.70
2018-12-30T19:26:01.163Z,15.00
2018-12-30T19:28:29.893Z,10.53
2018-12-30T19:30:58.341Z,14.13
2018-12-30T19:33:26.762Z,10.10
2018-12-30T19:35:55.208Z,11.80
2018-12-30T19:38:23.624Z,6.67
2018-12-30T19:40:52.068Z,9.57
2018-12-30T19:43:20.492Z,10.40
2018-12-30T19:45:48.944Z,12.17
2018-12-30T19:48:17.359Z,9.40
2018-12-30T19:50:45.803Z,10.73
2018-12-30T19:53:14.243Z,12.00
2018-12-30T19:55:42.677Z,5.33
2018-12-30T19:58:11.097Z,8.50
2018-12-30T20:00:39.520Z,12.60
2018-12-30T20:03:08.037Z,22.30
2018-12-30T20:05:36.528Z,14.10
2018-12-30T20:08:04.983Z,12.20
2018-12-30T20:10:33.401Z,17.73
2018-12-30T20:13:08.829Z,13.50
2018-12-30T20:15:31.996Z,12.27
2018-12-30T20:18:00.434Z,16.83
2018-12-30T20:20:28.858Z,12.47
2018-12-30T20:22:57.303Z,5.50
2018-12-30T20:25:25.719Z,15.87
2018-12-30T20:27:54.163Z,10.63
2018-12-30T20:30:22.591Z,14.03
2018-12-30T20:32:51.038Z,14.80
2018-12-30T20:35:19.451Z,8.50
2018-12-30T20:37:47.903Z,11.03
2018-12-30T20:40:16.390Z,6.70
2018-12-30T20:42:44.835Z,19.53
2018-12-30T20:45:13.253Z,14.43
2018-12-30T20:47:41.700Z,11.87
2018-12-30T20:50:10.115Z,16.00
2018-12-30T20:52:38.564Z,15.70
2018-12-30T20:55:06.986Z,13.87
2018-12-30T20:57:35.431Z,15.03
2018-12-30T21:00:05.196Z,10.37
2018-12-30T21:02:33.710Z,9.27
2018-12-30T21:05:02.138Z,17.07
2018-12-30T21:07:30.656Z,16.03
2018-12-30T21:09:59.081Z,13.13
2018-12-30T21:12:27.540Z,11.13
2018-12-30T21:14:55.960Z,15.07
2018-12-30T21:17:24.416Z,16.73
2018-12-30T21:19:52.832Z,20.17
2018-12-30T21:22:21.289Z,18.00
2018-12-30T21:24:49.702Z,11.07
2018-12-30T21:27:18.157Z,15.43
2018-12-30T21:29:46.574Z,18.37
2018-12-30T21:32:15.025Z,16.57
2018-12-30T21:34:44.938Z,18.73
2018-12-30T21:37:13.575Z,17.53
2018-12-30T21:39:41.994Z,19.97
2018-12-30T21:42:10.437Z,20.43
2018-12-30T21:44:38.882Z,18.70
2018-12-30T21:47:07.306Z,15.40
2018-12-30T21:49:35.760Z,18.20
2018-12-30T21:52:04.179Z,22.67
2018-12-30T21:54:32.629Z,32.37
2018-12-30T21:57:01.052Z,24.90
2018-12-30T21:59:29.505Z,15.33
2018-12-30T22:01:57.923Z,18.37
2018-12-30T22:04:26.373Z,20.57
2018-12-30T22:06:54.809Z,29.10
2018-12-30T22:09:23.246Z,27.53
2018-12-30T22:11:51.677Z,17.50
2018-12-30T22:14:20.128Z,13.17
2018-12-30T22:16:48.542Z,31.60
2018-12-30T22:19:16.988Z,22.43
2018-12-30T22:21:45.404Z,26.07
2018-12-30T22:24:13.858Z,20.43
2018-12-30T22:26:42.277Z,21.40
2018-12-30T22:29:10.792Z,16.70
2018-12-30T22:31:39.217Z,27.00
2018-12-30T22:34:07.663Z,20.77
2018-12-30T22:36:36.084Z,16.40
2018-12-30T22:39:06.373Z,22.80
2018-12-30T22:41:34.794Z,22.87
2018-12-30T22:44:03.240Z,31.90
2018-12-30T22:46:31.661Z,22.30
2018-12-30T22:49:00.126Z,31.17
2018-12-30T22:51:28.544Z,29.57
2018-12-30T22:53:56.993Z,21.10
2018-12-30T22:56:25.411Z,16.87
2018-12-30T22:58:53.867Z,24.03
2018-12-30T23:01:22.413Z,25.63
2018-12-30T23:03:50.900Z,29.60
2018-12-30T23:06:19.322Z,22.97
2018-12-30T23:08:47.742Z,22.37
2018-12-30T23:11:16.193Z,24.40
2018-12-30T23:13:44.617Z,18.40
2018-12-30T23:16:13.063Z,19.93
2018-12-30T23:18:41.491Z,21.60
2018-12-30T23:21:09.943Z,15.80
2018-12-30T23:23:38.379Z,24.47
2018-12-30T23:26:06.907Z,25.60
2018-12-30T23:28:35.331Z,18.30
2018-12-30T23:31:03.784Z,22.80
2018-12-30T23:33:32.200Z,21.73
2018-12-30T23:36:00.644Z,21.20
2018-12-30T23:38:29.068Z,22.30
2018-12-30T23:40:57.515Z,20.73
2018-12-30T23:43:25.931Z,26.57
2018-12-30T23:45:54.376Z,18.03
2018-12-30T23:48:22.798Z,20.70
2018-12-30T23:50:51.241Z,11.37
2018-12-30T23:53:19.663Z,22.53
2018-12-30T23:55:48.108Z,26.60
2018-12-30T23:58:16.544Z,26.63
